OYYAI EKYT-EKBI

Flight info

Callsign OYYAI
Flight time N/A
Altitude 16000
Route LOKSA
Aircraft P180/L-SBDFGM3RWXY/LB1

Departure

Time 2026-05-07 19:39
Airport Aalborg Airport (EKYT)

Arrival

Time N/A
Airport Billund Airport (EKBI)
Time Latitude Longitude Altitude Speed Heading
2026-05-07 19:11 57.08581 9.86837 13 ft 0 kts 138°
2026-05-07 19:29 57.08575 9.86843 -15 ft 3 kts 177°
2026-05-07 19:30 57.08574 9.86897 13 ft 5 kts 72°
2026-05-07 19:30 57.08582 9.86930 13 ft 0 kts 51°
2026-05-07 19:33 57.08608 9.86954 13 ft 9 kts 350°
2026-05-07 19:33 57.08656 9.86883 13 ft 11 kts 317°
2026-05-07 19:33 57.08741 9.86749 13 ft 21 kts 322°
2026-05-07 19:34 57.08864 9.86572 13 ft 27 kts 323°
2026-05-07 19:34 57.09007 9.86365 12 ft 24 kts 321°
2026-05-07 19:34 57.09131 9.86185 12 ft 21 kts 323°
2026-05-07 19:34 57.09245 9.86030 12 ft 19 kts 324°
2026-05-07 19:35 57.09350 9.85886 12 ft 18 kts 320°
2026-05-07 19:35 57.09426 9.85775 12 ft 0 kts 320°
2026-05-07 19:36 57.09430 9.85769 12 ft 6 kts 318°
2026-05-07 19:36 57.09503 9.85693 10 ft 7 kts 14°
2026-05-07 19:37 57.09522 9.85740 10 ft 6 kts 71°
2026-05-07 19:37 57.09548 9.86070 14 ft 48 kts 83°
2026-05-07 19:37 57.09592 9.86774 136 ft 59 kts 85°
2026-05-07 19:37 57.09624 9.87556 301 ft 62 kts 86°
2026-05-07 19:38 57.09648 9.88293 419 ft 51 kts 87°
2026-05-07 19:38 57.09656 9.88917 449 ft 50 kts 90°
2026-05-07 19:38 57.09658 9.89613 471 ft 57 kts 91°
2026-05-07 19:38 57.09654 9.90296 570 ft 52 kts 94°
2026-05-07 19:39 57.09645 9.90984 658 ft 57 kts 96°
2026-05-07 19:39 57.09609 9.91734 736 ft 61 kts 97°
2026-05-07 19:39 57.09558 9.92595 797 ft 72 kts 101°
2026-05-07 19:39 57.09503 9.93234 793 ft 79 kts 106°
2026-05-07 19:40 57.08953 9.93936 856 ft 84 kts 179°
2026-05-07 19:40 57.08393 9.93697 969 ft 85 kts 191°
2026-05-07 19:40 57.07803 9.93469 1028 ft 85 kts 186°
2026-05-07 19:40 57.07252 9.93266 1165 ft 75 kts 187°
2026-05-07 19:41 57.06727 9.93036 1249 ft 81 kts 190°
2026-05-07 19:41 57.06191 9.92755 1389 ft 79 kts 189°
2026-05-07 19:41 57.05643 9.92674 1489 ft 78 kts 174°
2026-05-07 19:41 57.05123 9.92752 1601 ft 81 kts 170°
2026-05-07 19:42 57.04577 9.92831 1768 ft 76 kts 176°
2026-05-07 19:42 57.04004 9.92790 1731 ft 90 kts 181°
2026-05-07 19:42 57.03368 9.92660 1702 ft 97 kts 185°
2026-05-07 19:42 57.02738 9.92678 1784 ft 88 kts 175°
2026-05-07 19:43 57.02109 9.92633 1782 ft 90 kts 178°
2026-05-07 19:43 57.01485 9.92530 1811 ft 92 kts 182°
2026-05-07 19:43 57.00868 9.92406 1823 ft 89 kts 184°
2026-05-07 19:43 57.00245 9.92339 1812 ft 89 kts 176°
2026-05-07 19:44 56.99629 9.92444 1846 ft 91 kts 171°
2026-05-07 19:44 56.99009 9.92672 1873 ft 88 kts 166°
2026-05-07 19:44 56.98412 9.92953 1857 ft 93 kts 163°
2026-05-07 19:44 56.97781 9.93220 1897 ft 90 kts 167°
2026-05-07 19:45 56.97180 9.93492 1925 ft 92 kts 162°
2026-05-07 19:45 56.96599 9.93901 2064 ft 81 kts 156°
2026-05-07 19:45 56.96073 9.94326 2161 ft 82 kts 154°
2026-05-07 19:45 56.95557 9.94797 2286 ft 76 kts 154°
2026-05-07 19:46 56.95229 9.95084 2323 ft 80 kts 155°
2026-05-07 19:46 56.94729 9.95486 2449 ft 78 kts 157°
2026-05-07 19:46 56.94225 9.95918 2542 ft 81 kts 153°
2026-05-07 19:46 56.93706 9.96323 2656 ft 81 kts 159°
2026-05-07 19:47 56.93006 9.96828 2803 ft 81 kts 158°
2026-05-07 19:47 56.92655 9.97080 2879 ft 80 kts 159°
2026-05-07 19:47 56.92124 9.97454 2982 ft 80 kts 158°
2026-05-07 19:47 56.91609 9.97835 3043 ft 83 kts 159°
2026-05-07 19:48 56.91060 9.98171 3124 ft 83 kts 171°
2026-05-07 19:48 56.90480 9.98140 3192 ft 84 kts 189°
2026-05-07 19:48 56.89913 9.97896 3271 ft 83 kts 195°
2026-05-07 19:48 56.89359 9.97625 3351 ft 83 kts 194°
2026-05-07 19:49 56.88810 9.97300 3439 ft 82 kts 200°
2026-05-07 19:49 56.88281 9.96891 3519 ft 83 kts 205°
2026-05-07 19:49 56.87768 9.96433 3622 ft 82 kts 206°
2026-05-07 19:49 56.87254 9.95976 3719 ft 82 kts 205°
2026-05-07 19:50 56.86743 9.95542 3812 ft 81 kts 204°
2026-05-07 19:50 56.86201 9.95244 3887 ft 81 kts 196°
2026-05-07 19:50 56.85675 9.94868 3907 ft 86 kts 219°
2026-05-07 19:50 56.85275 9.94122 4027 ft 79 kts 232°
2026-05-07 19:51 56.84900 9.93353 4051 ft 83 kts 222°
2026-05-07 19:51 56.84480 9.92670 4135 ft 80 kts 224°
2026-05-07 19:51 56.84078 9.91925 4153 ft 82 kts 221°
2026-05-07 19:51 56.83623 9.91333 4207 ft 83 kts 214°
2026-05-07 19:52 56.83142 9.90787 4278 ft 82 kts 212°
2026-05-07 19:52 56.82638 9.90265 4360 ft 83 kts 208°
2026-05-07 19:52 56.82133 9.89777 4447 ft 84 kts 209°
2026-05-07 19:52 56.81594 9.89294 4493 ft 85 kts 205°
2026-05-07 19:53 56.81023 9.88878 4491 ft 90 kts 202°
2026-05-07 19:53 56.80425 9.88512 4507 ft 90 kts 197°
2026-05-07 19:53 56.79812 9.88225 4481 ft 93 kts 195°
2026-05-07 19:53 56.79182 9.87983 4486 ft 92 kts 193°
2026-05-07 19:54 56.78529 9.87744 4391 ft 96 kts 191°
2026-05-07 19:54 56.77878 9.87543 4382 ft 95 kts 191°
2026-05-07 19:54 56.77214 9.87354 4361 ft 95 kts 189°
2026-05-07 19:54 56.76546 9.87170 4272 ft 100 kts 192°
2026-05-07 19:55 56.75891 9.86910 4234 ft 95 kts 192°
2026-05-07 19:55 56.75218 9.86689 4108 ft 100 kts 191°
2026-05-07 19:55 56.74557 9.86480 4110 ft 95 kts 191°
2026-05-07 19:55 56.73906 9.86227 4094 ft 93 kts 195°
2026-05-07 19:56 56.73291 9.85973 4143 ft 89 kts 192°
2026-05-07 19:56 56.72675 9.85777 4095 ft 93 kts 192°
2026-05-07 19:56 56.72050 9.85520 4054 ft 91 kts 194°
2026-05-07 19:56 56.71406 9.85242 3997 ft 95 kts 194°
2026-05-07 19:57 56.70757 9.85024 3963 ft 96 kts 186°
2026-05-07 19:57 56.70089 9.84928 3930 ft 96 kts 187°
2026-05-07 19:57 56.69435 9.84590 3873 ft 99 kts 203°
2026-05-07 19:57 56.68835 9.84093 3906 ft 94 kts 208°
2026-05-07 19:58 56.68218 9.83568 3879 ft 97 kts 205°
2026-05-07 19:58 56.67612 9.83072 3887 ft 96 kts 203°
2026-05-07 19:58 56.66998 9.82616 3871 ft 97 kts 201°
2026-05-07 19:58 56.66349 9.82204 3867 ft 99 kts 199°
2026-05-07 19:59 56.65690 9.81888 3867 ft 98 kts 196°
2026-05-07 19:59 56.65029 9.81547 3822 ft 99 kts 195°
2026-05-07 19:59 56.64392 9.81089 3780 ft 100 kts 212°
2026-05-07 19:59 56.63861 9.80300 3769 ft 98 kts 224°
2026-05-07 20:00 56.63376 9.79422 3749 ft 98 kts 226°
2026-05-07 20:00 56.62902 9.78537 3767 ft 94 kts 226°
2026-05-07 20:00 56.62475 9.77714 3861 ft 91 kts 228°
2026-05-07 20:00 56.62065 9.76873 3976 ft 84 kts 229°
2026-05-07 20:01 56.61686 9.76079 4059 ft 85 kts 229°
2026-05-07 20:01 56.61295 9.75301 4171 ft 83 kts 227°
2026-05-07 20:01 56.60886 9.74533 4245 ft 84 kts 226°
2026-05-07 20:01 56.60455 9.73746 4279 ft 88 kts 225°
2026-05-07 20:02 56.60024 9.72981 4358 ft 87 kts 223°
2026-05-07 20:02 56.59575 9.72187 4376 ft 90 kts 225°
2026-05-07 20:02 56.59133 9.71417 4443 ft 89 kts 223°
2026-05-07 20:02 56.58681 9.70633 4494 ft 89 kts 223°
2026-05-07 20:03 56.58229 9.69860 4553 ft 90 kts 223°
2026-05-07 20:03 56.57770 9.69089 4604 ft 91 kts 222°
2026-05-07 20:03 56.57290 9.68323 4636 ft 93 kts 222°
2026-05-07 20:03 56.56804 9.67558 4692 ft 92 kts 220°
2026-05-07 20:04 56.56310 9.66821 4729 ft 92 kts 219°
2026-05-07 20:04 56.55806 9.66096 4765 ft 92 kts 218°
2026-05-07 20:04 56.55299 9.65381 4785 ft 92 kts 218°
2026-05-07 20:04 56.54790 9.64665 4785 ft 94 kts 217°
2026-05-07 20:05 56.54252 9.63978 4821 ft 93 kts 215°
2026-05-07 20:05 56.53698 9.63278 4717 ft 101 kts 214°
2026-05-07 20:05 56.53125 9.62605 4708 ft 98 kts 213°
2026-05-07 20:05 56.52544 9.61918 4662 ft 99 kts 214°
2026-05-07 20:06 56.51980 9.61217 4631 ft 99 kts 215°
2026-05-07 20:06 56.51412 9.60516 4625 ft 98 kts 213°
2026-05-07 20:06 56.50845 9.59830 4605 ft 98 kts 213°
2026-05-07 20:06 56.50269 9.59176 4580 ft 98 kts 212°
2026-05-07 20:07 56.49677 9.58550 4538 ft 99 kts 209°
2026-05-07 20:07 56.49070 9.57969 4499 ft 99 kts 209°
2026-05-07 20:07 56.48467 9.57381 4480 ft 98 kts 209°
2026-05-07 20:07 56.47858 9.56808 4431 ft 100 kts 207°
2026-05-07 20:08 56.47241 9.56268 4426 ft 97 kts 206°
2026-05-07 20:08 56.46624 9.55770 4402 ft 97 kts 204°
2026-05-07 20:08 56.46001 9.55330 4386 ft 97 kts 201°
2026-05-07 20:08 56.45357 9.54941 4353 ft 97 kts 199°
2026-05-07 20:09 56.44706 9.54612 4315 ft 98 kts 194°
2026-05-07 20:09 56.44051 9.54305 4315 ft 96 kts 198°
2026-05-07 20:09 56.43396 9.54011 4289 ft 97 kts 194°
2026-05-07 20:10 56.42065 9.53422 4212 ft 96 kts 195°
2026-05-07 20:10 56.41368 9.53116 3963 ft 111 kts 197°
2026-05-07 20:10 56.40720 9.52732 4083 ft 91 kts 202°
2026-05-07 20:10 56.40083 9.52325 3942 ft 101 kts 202°
2026-05-07 20:11 56.39509 9.51595 3843 ft 100 kts 231°
2026-05-07 20:11 56.39157 9.50453 3632 ft 107 kts 251°
2026-05-07 20:11 56.39102 9.49100 3386 ft 114 kts 272°
2026-05-07 20:11 56.39202 9.47699 2899 ft 127 kts 282°
2026-05-07 20:12 56.39524 9.46197 2010 ft 121 kts 300°
2026-05-07 20:12 56.39838 9.45246 1304 ft 78 kts 301°
2026-05-07 20:12 56.40099 9.44448 756 ft 69 kts 297°
2026-05-07 20:12 56.40310 9.43694 513 ft 63 kts 290°
2026-05-07 20:13 56.40460 9.43100 472 ft 51 kts 297°
2026-05-07 20:13 56.40640 9.42495 343 ft 60 kts 295°
2026-05-07 20:13 56.40804 9.41838 201 ft 51 kts 290°
2026-05-07 20:13 56.40921 9.41283 86 ft 41 kts 289°
2026-05-07 20:14 56.40973 9.40969 88 ft 17 kts 289°
2026-05-07 20:14 56.41075 9.40577 124 ft 40 kts 295°
2026-05-07 20:14 56.41201 9.40045 207 ft 56 kts 287°
2026-05-07 20:14 56.41344 9.39334 313 ft 65 kts 298°
2026-05-07 20:15 56.41760 9.38882 371 ft 79 kts 352°
2026-05-07 20:15 56.42231 9.38580 450 ft 73 kts 271°
2026-05-07 20:15 56.41910 9.37921 520 ft 65 kts 259°
2026-05-07 20:15 56.42144 9.37428 631 ft 70 kts 30°
2026-05-07 20:16 56.42052 9.38245 558 ft 82 kts 135°
2026-05-07 20:16 56.41611 9.38797 531 ft 79 kts 168°
2026-05-07 20:16 56.41083 9.38817 683 ft 74 kts 186°
2026-05-07 20:16 56.40555 9.38801 825 ft 77 kts 179°
2026-05-07 20:17 56.40026 9.38853 973 ft 73 kts 175°
2026-05-07 20:17 56.39719 9.39399 1066 ft 77 kts 105°
2026-05-07 20:17 56.39751 9.40465 917 ft 85 kts 72°
2026-05-07 20:17 56.40256 9.40901 494 ft 92 kts
2026-05-07 20:18 56.40829 9.40981 135 ft 82 kts 355°
2026-05-07 20:18 56.41303 9.40903 91 ft 47 kts 352°
2026-05-07 20:18 56.41481 9.40874 80 ft 5 kts 52°
2026-05-07 20:18 56.41476 9.40892 82 ft 0 kts 178°